Time;durP1;ratioP1;P1;durP2;ratioP2;P2;SDS_P1;SDS_P2;PMS_P1;PMS_P2;Temp;Humidity;BMP_temperature;BMP_pressure;BME280_temperature;BME280_humidity;BME280_pressure;Samples;Min_cycle;Max_cycle;Signal;HPM_P1;HPM_P2
2022/01/04 00:02:03;;;;;;;27.35;13.30;;;;;;;4.88;86.90;101269.63;5066534;28;20049;-85
2022/01/04 00:04:30;;;;;;;30.73;15.23;;;;;;;5.17;87.11;101304.03;5064315;28;20052;-85
2022/01/04 00:06:58;;;;;;;23.80;14.60;;;;;;;3.64;87.33;101050.22;5064985;28;20053;-87
2022/01/04 00:09:24;;;;;;;23.58;14.85;;;;;;;4.86;87.67;101257.50;5065553;28;20131;-84
2022/01/04 00:14:18;;;;;;;21.65;13.50;;;;;;;4.95;87.25;101271.91;5067203;28;20660;-86
2022/01/04 00:16:45;;;;;;;22.38;13.90;;;;;;;5.27;87.57;101307.00;5065176;28;20128;-84
2022/01/04 00:19:12;;;;;;;32.33;14.93;;;;;;;5.27;87.20;101304.38;5066700;28;20131;-84
2022/01/04 00:21:42;;;;;;;20.23;14.23;;;;;;;5.17;86.65;101282.09;5066430;28;20048;-85
2022/01/04 00:24:09;;;;;;;19.90;13.98;;;;;;;5.11;86.24;101281.50;5066346;28;20060;-85
2022/01/04 00:26:36;;;;;;;21.80;14.48;;;;;;;4.56;86.54;101202.13;5065115;28;20488;-85
2022/01/04 00:29:02;;;;;;;16.30;13.90;;;;;;;4.77;86.63;101231.69;5081991;28;20144;-84
2022/01/04 00:31:29;;;;;;;15.95;13.20;;;;;;;4.90;86.74;101262.50;5067515;28;20105;-86
2022/01/04 00:33:55;;;;;;;18.10;12.90;;;;;;;5.06;86.57;101280.06;5076512;28;20052;-86
2022/01/04 00:36:25;;;;;;;26.23;12.73;;;;;;;4.99;86.13;101282.19;5087972;28;20134;-87
2022/01/04 00:38:52;;;;;;;17.90;12.00;;;;;;;4.47;86.09;101183.31;5094016;28;20078;-90
2022/01/04 00:41:19;;;;;;;15.88;12.80;;;;;;;4.72;86.02;101239.81;5091586;28;20041;-86
2022/01/04 00:43:45;;;;;;;16.27;11.43;;;;;;;4.66;86.46;101212.09;5071310;28;20163;-87
2022/01/04 00:46:16;;;;;;;16.48;13.43;;;;;;;4.93;86.14;101243.91;5071889;28;20048;-84
2022/01/04 00:51:30;;;;;;;15.15;11.55;;;;;;;4.99;85.21;101268.19;5070079;28;20051;-87
2022/01/04 00:53:57;;;;;;;18.98;11.98;;;;;;;4.71;85.17;101228.47;5069276;28;20147;-83
2022/01/04 00:56:23;;;;;;;23.38;12.98;;;;;;;5.06;85.54;101290.59;5068879;28;20055;-86
2022/01/04 00:58:50;;;;;;;29.05;12.63;;;;;;;5.06;84.68;101291.44;5068082;28;20499;-86
2022/01/04 01:01:17;;;;;;;22.23;11.55;;;;;;;4.81;84.95;101263.00;5068468;28;20501;-86
2022/01/04 01:03:44;;;;;;;26.92;11.93;;;;;;;4.93;85.02;101293.91;5068501;28;20046;-84
2022/01/04 01:06:11;;;;;;;23.55;12.18;;;;;;;4.82;84.64;101283.09;5068872;28;20126;-85
2022/01/04 01:08:37;;;;;;;39.83;12.07;;;;;;;4.65;84.99;101251.59;5068209;28;20048;-84
2022/01/04 01:11:06;;;;;;;18.38;10.88;;;;;;;4.41;84.58;101220.41;5069371;28;20476;-85
2022/01/04 01:13:33;;;;;;;26.45;10.68;;;;;;;4.32;84.75;101220.94;5068318;28;20127;-84
2022/01/04 01:15:59;;;;;;;53.92;12.65;;;;;;;4.64;84.79;101263.06;5067945;28;20148;-85
2022/01/04 01:18:26;;;;;;;71.88;12.68;;;;;;;4.61;85.20;101268.47;5068241;28;20099;-85
2022/01/04 01:20:56;;;;;;;39.67;10.82;;;;;;;4.60;84.96;101270.25;5068573;28;20087;-85
2022/01/04 01:23:23;;;;;;;31.77;11.65;;;;;;;4.52;85.44;101251.41;5068005;28;20503;-84
2022/01/04 01:25:50;;;;;;;14.15;10.50;;;;;;;4.66;85.10;101282.22;5068132;28;20100;-84
2022/01/04 01:28:18;;;;;;;23.75;11.30;;;;;;;4.53;85.53;101249.63;5067807;28;20056;-83
2022/01/04 01:30:45;;;;;;;24.33;9.88;;;;;;;4.20;84.56;101200.53;5069829;28;20139;-84
2022/01/04 01:33:12;;;;;;;29.83;10.35;;;;;;;4.63;84.92;101274.50;5069074;28;20478;-84
2022/01/04 01:35:40;;;;;;;12.98;8.80;;;;;;;4.32;85.26;101251.59;5067833;28;20054;-85
2022/01/04 01:38:08;;;;;;;27.85;10.13;;;;;;;4.44;85.42;101272.88;5068000;28;20418;-82
2022/01/04 01:40:36;;;;;;;23.13;10.50;;;;;;;4.49;85.57;101306.78;5067870;28;20072;-85
2022/01/04 01:43:04;;;;;;;67.38;12.65;;;;;;;4.22;85.90;101252.09;5068842;28;20052;-85
2022/01/04 01:45:33;;;;;;;38.33;10.95;;;;;;;4.02;85.81;101218.09;5069400;28;20076;-86
2022/01/04 01:48:03;;;;;;;20.10;9.97;;;;;;;4.30;86.78;101243.81;5067276;28;20055;-85
2022/01/04 01:50:30;;;;;;;43.40;11.95;;;;;;;4.55;86.54;101279.31;5067517;28;20044;-85
2022/01/04 01:52:56;;;;;;;45.95;10.63;;;;;;;4.47;86.09;101237.66;5067513;28;20472;-84
2022/01/04 01:55:24;;;;;;;20.17;10.48;;;;;;;4.36;85.94;101235.59;5067778;28;20147;-85
2022/01/04 01:57:52;;;;;;;23.98;11.13;;;;;;;4.45;85.29;101278.97;5067233;28;20139;-85
2022/01/04 02:00:22;;;;;;;20.85;10.23;;;;;;;4.19;85.91;101240.88;5068996;28;20048;-87
2022/01/04 02:02:49;;;;;;;48.15;12.00;;;;;;;4.41;86.10;101280.88;5067464;28;20143;-87
2022/01/04 02:05:16;;;;;;;60.45;12.07;;;;;;;4.05;85.77;101226.69;5084276;28;20588;-86
2022/01/04 02:07:44;;;;;;;23.92;10.35;;;;;;;4.21;85.89;101254.81;5067262;28;20045;-86
2022/01/04 02:10:12;;;;;;;22.73;10.73;;;;;;;3.81;86.28;101194.66;5067189;28;20143;-87
2022/01/04 02:12:46;;;;;;;20.92;11.13;;;;;;;4.25;86.34;101240.59;5067541;28;20454;-85
2022/01/04 02:15:19;;;;;;;36.10;11.73;;;;;;;3.80;86.18;101182.44;5068681;28;20499;-87
2022/01/04 02:17:47;;;;;;;30.30;10.68;;;;;;;4.31;86.01;101236.78;5067172;28;20044;-84
2022/01/04 02:20:15;;;;;;;56.10;12.95;;;;;;;4.09;86.35;101205.50;5066808;28;20048;-85
2022/01/04 02:22:43;;;;;;;59.42;11.93;;;;;;;4.37;85.88;101244.31;5066822;28;20295;-85
2022/01/04 02:25:10;;;;;;;27.25;10.68;;;;;;;4.35;86.24;101246.22;5067058;28;20052;-87
2022/01/04 02:27:38;;;;;;;34.78;12.07;;;;;;;3.83;85.98;101156.00;5068300;28;20139;-86
2022/01/04 02:30:08;;;;;;;25.90;11.18;;;;;;;3.52;86.51;101093.75;5067546;28;20048;-85
2022/01/04 02:32:35;;;;;;;34.83;11.43;;;;;;;4.29;86.17;101210.56;5067582;28;20159;-86
2022/01/04 02:35:03;;;;;;;38.17;11.32;;;;;;;4.20;86.19;101183.00;5067700;28;20131;-85
2022/01/04 02:37:31;;;;;;;32.83;10.68;;;;;;;4.36;86.36;101201.41;5068823;28;20052;-84
2022/01/04 02:39:57;;;;;;;33.35;11.45;;;;;;;4.31;86.18;101192.94;5067843;28;20147;-82
2022/01/04 02:42:24;;;;;;;15.57;10.68;;;;;;;4.47;86.79;101196.44;5067828;28;20049;-84
2022/01/04 02:44:50;;;;;;;39.53;11.55;;;;;;;4.43;85.95;101199.31;5067720;28;20406;-84
2022/01/04 02:47:18;;;;;;;30.45;11.00;;;;;;;4.48;86.11;101205.19;5066675;28;20060;-86
2022/01/04 02:49:45;;;;;;;41.25;11.60;;;;;;;4.27;85.95;101175.63;5067462;28;20044;-85
2022/01/04 02:52:11;;;;;;;26.00;11.18;;;;;;;4.42;86.13;101218.66;5066553;28;20106;-85
2022/01/04 02:54:38;;;;;;;25.63;11.15;;;;;;;4.33;86.73;101192.88;5066230;28;20504;-85
2022/01/04 02:57:05;;;;;;;29.95;11.50;;;;;;;3.98;87.26;101122.84;5067189;28;20044;-84
2022/01/04 02:59:31;;;;;;;30.02;13.40;;;;;;;4.27;87.36;101180.88;5065798;28;20044;-84
2022/01/04 03:01:59;;;;;;;23.65;11.95;;;;;;;4.28;87.29;101179.97;5066099;28;20136;-85
2022/01/04 03:04:26;;;;;;;22.90;11.83;;;;;;;4.16;87.47;101156.97;5067389;28;20147;-86
2022/01/04 03:06:53;;;;;;;25.90;12.07;;;;;;;3.92;87.87;101110.03;5067835;28;20052;-85
2022/01/04 03:09:19;;;;;;;23.33;13.43;;;;;;;4.19;88.14;101151.53;5065971;28;20044;-83
2022/01/04 03:11:46;;;;;;;39.33;13.80;;;;;;;4.34;88.18;101195.38;5083139;28;20292;-83
2022/01/04 03:14:13;;;;;;;34.87;12.57;;;;;;;4.10;88.33;101150.22;5067553;28;20051;-84
2022/01/04 03:16:39;;;;;;;28.40;13.57;;;;;;;4.26;88.54;101168.69;5067330;28;20052;-85
2022/01/04 03:19:06;;;;;;;36.30;13.73;;;;;;;3.62;88.65;101054.75;5067399;28;20140;-86
2022/01/04 03:21:34;;;;;;;29.90;13.98;;;;;;;4.37;88.69;101168.97;5066318;28;20125;-85
2022/01/04 03:24:03;;;;;;;26.58;13.13;;;;;;;4.40;88.19;101150.38;5067166;28;20663;-85
2022/01/04 03:26:29;;;;;;;17.77;12.97;;;;;;;4.49;88.87;101160.41;5067258;28;20056;-85
2022/01/04 03:28:57;;;;;;;21.30;12.53;;;;;;;4.45;88.39;101142.25;5082777;28;20136;-85
2022/01/04 03:31:26;;;;;;;26.50;13.67;;;;;;;4.42;88.82;101138.00;5065711;28;20131;-86
2022/01/04 03:33:52;;;;;;;18.75;13.13;;;;;;;4.30;88.25;101107.13;5065668;28;20097;-85
2022/01/04 03:36:21;;;;;;;25.33;13.57;;;;;;;3.89;87.86;101022.69;5067249;28;20407;-83
2022/01/04 03:38:48;;;;;;;17.77;13.23;;;;;;;4.20;87.88;101075.25;5065635;28;20044;-85
2022/01/04 03:41:16;;;;;;;33.72;13.15;;;;;;;4.27;88.28;101089.75;5066906;28;20118;-83
2022/01/04 03:43:43;;;;;;;21.30;13.18;;;;;;;4.47;88.03;101111.47;5066978;28;20587;-84
2022/01/04 03:46:10;;;;;;;26.50;13.65;;;;;;;3.43;88.15;100952.47;5065932;28;20167;-84
2022/01/04 03:48:37;;;;;;;32.63;12.97;;;;;;;4.47;88.37;101128.09;5065972;28;20053;-84
2022/01/04 03:51:06;;;;;;;27.73;12.73;;;;;;;4.27;87.94;101091.50;5065959;28;20084;-85
2022/01/04 03:53:33;;;;;;;59.83;13.67;;;;;;;4.11;87.91;101059.13;5065566;28;20497;-86
2022/01/04 03:56:00;;;;;;;76.40;13.75;;;;;;;3.66;87.91;100992.38;5066921;28;20052;-84
2022/01/04 03:58:27;;;;;;;22.25;12.07;;;;;;;4.24;88.50;101086.44;5065811;28;20041;-85
2022/01/04 04:00:53;;;;;;;47.60;12.50;;;;;;;3.13;88.10;100892.84;5065732;28;20106;-86
2022/01/04 04:03:20;;;;;;;58.03;13.70;;;;;;;3.64;88.10;100982.84;5065268;28;20065;-88
2022/01/04 04:05:49;;;;;;;35.17;12.90;;;;;;;2.70;88.52;100816.44;5066704;28;20102;-84
2022/01/04 04:08:17;;;;;;;49.90;13.13;;;;;;;3.65;88.77;100975.78;5064985;28;20225;-86
2022/01/04 04:10:43;;;;;;;40.47;13.73;;;;;;;3.35;88.63;100923.16;5067644;28;20100;-84
2022/01/04 04:13:10;;;;;;;27.23;12.32;;;;;;;2.87;88.62;100844.38;5070845;28;20480;-85
2022/01/04 04:15:40;;;;;;;40.15;13.90;;;;;;;4.42;88.93;101090.69;5069832;28;20084;-85
2022/01/04 04:18:08;;;;;;;42.20;12.93;;;;;;;4.46;88.82;101102.72;5070881;28;20040;-86
2022/01/04 04:20:35;;;;;;;29.27;12.48;;;;;;;4.29;88.83;101060.75;5069786;28;20127;-86
2022/01/04 04:23:03;;;;;;;26.67;12.73;;;;;;;3.82;88.77;100970.47;5069712;28;20435;-85
2022/01/04 04:25:30;;;;;;;45.97;12.57;;;;;;;3.83;88.40;100956.41;5071174;28;20533;-85
2022/01/04 04:27:57;;;;;;;33.42;14.30;;;;;;;2.69;88.59;100757.03;5069887;28;20119;-86
2022/01/04 04:30:27;;;;;;;37.23;13.30;;;;;;;2.68;88.19;100765.84;5069194;28;20048;-85
2022/01/04 04:32:54;;;;;;;49.30;13.75;;;;;;;4.45;88.45;101053.69;5070657;28;20071;-85
2022/01/04 04:35:20;;;;;;;30.27;12.40;;;;;;;3.25;88.32;100851.09;5070607;28;20134;-85
2022/01/04 04:37:47;;;;;;;41.25;13.63;;;;;;;3.04;88.32;100814.63;5069270;28;20044;-85
2022/01/04 04:40:17;;;;;;;41.60;14.55;;;;;;;2.77;88.62;100765.38;5069782;28;20147;-84
2022/01/04 04:42:44;;;;;;;43.97;12.82;;;;;;;2.70;88.31;100748.28;5071094;28;20503;-84
2022/01/04 04:45:10;;;;;;;36.10;13.80;;;;;;;4.20;88.63;101003.41;5072750;28;20102;-85
2022/01/04 04:47:37;;;;;;;45.97;14.55;;;;;;;3.16;88.32;100829.69;5070070;28;20079;-84
2022/01/04 04:50:05;;;;;;;33.33;14.73;;;;;;;3.30;88.60;100841.22;5073896;28;20053;-86
2022/01/04 04:52:31;;;;;;;28.30;13.18;;;;;;;3.27;88.52;100836.97;5086369;28;20059;-87
2022/01/04 04:54:58;;;;;;;48.07;14.00;;;;;;;3.95;88.80;100939.09;5085374;28;20048;-88
2022/01/04 04:57:25;;;;;;;40.72;13.55;;;;;;;4.00;89.12;100946.75;5086662;28;20040;-89
2022/01/04 04:59:52;;;;;;;29.88;13.88;;;;;;;3.90;89.06;100938.53;5088760;28;20472;-86
2022/01/04 05:02:18;;;;;;;27.85;13.93;;;;;;;2.69;88.81;100764.06;5069159;28;20053;-86
2022/01/04 05:04:45;;;;;;;34.50;14.80;;;;;;;3.16;89.22;100840.19;5068848;28;20513;-84
2022/01/04 05:07:12;;;;;;;29.65;13.98;;;;;;;3.72;88.55;100931.69;5068706;28;20530;-84
2022/01/04 05:09:39;;;;;;;22.38;14.32;;;;;;;3.20;88.96;100836.50;5075769;28;20398;-86
2022/01/04 05:12:06;;;;;;;42.10;14.53;;;;;;;3.59;88.89;100889.47;5049271;28;20049;-86
2022/01/04 05:14:33;;;;;;;21.55;14.18;;;;;;;3.53;88.82;100884.56;5061622;28;20131;-86
2022/01/04 05:17:00;;;;;;;22.52;14.95;;;;;;;4.53;89.11;101037.50;5089210;28;20457;-86
2022/01/04 05:19:27;;;;;;;51.17;14.50;;;;;;;4.69;88.88;101063.78;5104724;28;20058;-87
2022/01/04 05:21:53;;;;;;;40.20;15.20;;;;;;;4.66;89.50;101063.94;5087022;28;20142;-87
2022/01/04 05:24:20;;;;;;;37.90;14.43;;;;;;;4.61;89.02;101063.34;5088972;28;20507;-87
2022/01/04 05:26:46;;;;;;;24.13;14.27;;;;;;;4.41;89.48;101025.88;5086977;28;20416;-86
2022/01/04 05:29:13;;;;;;;40.75;15.93;;;;;;;4.64;89.29;101058.78;5087825;28;20055;-85
2022/01/04 05:31:40;;;;;;;30.08;14.50;;;;;;;4.52;89.41;101043.69;5087959;28;20431;-85
2022/01/04 05:34:07;;;;;;;33.97;15.30;;;;;;;4.48;89.27;101032.50;5088334;28;20164;-87
2022/01/04 05:36:35;;;;;;;33.42;13.68;;;;;;;3.91;88.99;100940.22;5087396;28;20371;-85
2022/01/04 05:39:03;;;;;;;36.53;15.18;;;;;;;4.70;89.19;101068.94;5087963;28;20051;-87
2022/01/04 05:41:30;;;;;;;45.22;14.15;;;;;;;4.69;89.26;101062.00;5087334;28;20056;-88
2022/01/04 05:43:56;;;;;;;65.30;15.43;;;;;;;4.18;89.34;100981.66;5087302;28;20052;-87
2022/01/04 05:46:23;;;;;;;52.28;14.68;;;;;;;4.33;89.33;101022.84;5087150;28;20146;-86
2022/01/04 05:48:50;;;;;;;38.53;14.18;;;;;;;3.42;89.35;100877.28;5087597;28;20184;-85
2022/01/04 05:51:17;;;;;;;64.38;13.10;;;;;;;2.84;89.17;100791.25;5088432;28;20129;-85
2022/01/04 05:53:44;;;;;;;62.45;14.45;;;;;;;4.62;89.72;101068.53;5088243;28;20071;-87
2022/01/04 05:56:10;;;;;;;42.80;13.27;;;;;;;3.96;89.87;100963.63;5088176;28;20052;-86
2022/01/04 05:58:37;;;;;;;39.10;12.47;;;;;;;3.56;89.88;100882.63;5086891;28;20143;-86
2022/01/04 06:01:06;;;;;;;63.33;13.82;;;;;;;3.70;90.12;100902.03;5088088;28;20044;-87
2022/01/04 06:03:33;;;;;;;36.35;13.52;;;;;;;3.58;89.69;100883.38;5087842;28;20116;-87
2022/01/04 06:06:00;;;;;;;41.60;14.32;;;;;;;4.33;89.81;100995.72;5086856;28;20087;-86
2022/01/04 06:08:32;;;;;;;46.23;14.00;;;;;;;4.09;89.94;100946.22;5086662;28;20589;-86
2022/01/04 06:11:00;;;;;;;42.27;14.27;;;;;;;4.42;89.60;100998.66;5046650;28;20053;-86
2022/01/04 06:16:12;;;;;;;21.70;13.67;;;;;;;3.84;89.95;100888.97;5047751;28;20049;-86
2022/01/04 06:18:41;;;;;;;25.63;12.70;;;;;;;4.81;90.23;101052.56;5046321;28;20077;-86
2022/01/04 06:21:10;;;;;;;21.75;12.65;;;;;;;4.61;90.12;101010.75;5047308;28;20201;-86
2022/01/04 06:23:38;;;;;;;24.13;13.32;;;;;;;4.22;90.07;100927.97;5063032;28;20139;-86
2022/01/04 06:26:04;;;;;;;21.65;13.00;;;;;;;4.74;89.91;101022.28;5062494;28;20138;-87
2022/01/04 06:28:32;;;;;;;22.15;12.85;;;;;;;3.85;89.63;100862.59;5046289;28;20088;-88
2022/01/04 06:30:59;;;;;;;19.73;12.77;;;;;;;3.21;89.52;100763.88;5062581;28;20053;-87
2022/01/04 06:33:25;;;;;;;29.40;12.20;;;;;;;4.21;89.64;100931.56;5045958;28;20099;-87
2022/01/04 06:35:52;;;;;;;17.25;12.05;;;;;;;3.80;89.45;100856.78;5047096;28;20139;-86
2022/01/04 06:38:18;;;;;;;20.67;12.20;;;;;;;3.89;89.13;100865.09;5047146;28;20523;-87
2022/01/04 06:40:45;;;;;;;18.08;12.20;;;;;;;4.23;89.39;100906.03;5062601;28;20084;-85
2022/01/04 06:43:12;;;;;;;16.80;12.02;;;;;;;3.61;89.14;100804.44;5045585;28;20056;-86
2022/01/04 06:45:38;;;;;;;22.25;12.88;;;;;;;3.57;88.63;100797.69;5045395;28;20057;-85
2022/01/04 06:48:05;;;;;;;20.65;12.90;;;;;;;4.29;88.82;100916.19;5045827;28;20140;-87
2022/01/04 06:50:32;;;;;;;18.25;13.38;;;;;;;3.87;88.65;100844.16;5047005;28;20130;-84
2022/01/04 06:52:59;;;;;;;19.85;13.05;;;;;;;4.20;88.82;100898.31;5045505;28;20563;-85
2022/01/04 06:55:25;;;;;;;18.27;12.55;;;;;;;4.50;89.18;100951.75;5046811;28;20118;-85
2022/01/04 06:57:52;;;;;;;16.15;13.07;;;;;;;3.25;88.67;100739.13;5045423;28;20118;-86
2022/01/04 07:00:19;;;;;;;21.45;13.20;;;;;;;4.33;89.01;100912.44;5044992;28;20127;-85
2022/01/04 07:02:45;;;;;;;18.73;13.02;;;;;;;4.35;88.57;100915.84;5046910;28;20064;-88
2022/01/04 07:05:12;;;;;;;19.90;14.27;;;;;;;5.02;88.55;101041.69;5045926;28;20056;-87
2022/01/04 07:07:39;;;;;;;19.40;13.98;;;;;;;3.88;88.39;100840.56;5073452;28;20142;-85
2022/01/04 07:10:06;;;;;;;23.20;14.63;;;;;;;3.27;88.25;100731.19;5059523;28;20371;-87
2022/01/04 07:12:33;;;;;;;23.33;14.98;;;;;;;5.02;88.42;101025.91;5044551;28;20111;-88
2022/01/04 07:15:01;;;;;;;22.45;15.40;;;;;;;3.74;88.05;100806.38;5046078;28;20664;-88
2022/01/04 07:17:28;;;;;;;17.80;14.55;;;;;;;3.72;88.27;100824.84;5046073;28;20045;-86
2022/01/04 07:19:55;;;;;;;19.83;15.52;;;;;;;4.12;88.21;100901.38;5045831;28;20250;-86
2022/01/04 07:22:21;;;;;;;21.25;14.95;;;;;;;4.88;88.27;101040.75;5045143;28;20096;-87
2022/01/04 07:24:48;;;;;;;20.52;14.73;;;;;;;3.25;88.02;100749.63;5045382;28;20049;-86
2022/01/04 07:27:15;;;;;;;18.52;14.63;;;;;;;3.52;88.54;100789.25;5046905;28;20072;-86
2022/01/04 07:29:41;;;;;;;19.88;14.77;;;;;;;3.40;87.75;100779.44;5050794;28;20052;-86
2022/01/04 07:32:10;;;;;;;27.30;14.75;;;;;;;3.61;87.95;100819.34;5065093;28;20113;-87
2022/01/04 07:34:37;;;;;;;18.13;14.07;;;;;;;3.65;88.00;100826.13;5065209;28;20059;-87
2022/01/04 07:37:03;;;;;;;18.02;13.82;;;;;;;3.62;88.24;100821.91;5066216;28;20136;-87
2022/01/04 07:39:30;;;;;;;21.23;14.25;;;;;;;3.77;88.35;100850.88;5056293;28;20068;-86
2022/01/04 07:41:57;;;;;;;18.17;13.43;;;;;;;3.73;87.77;100838.81;5046294;28;20435;-85
2022/01/04 07:44:27;;;;;;;16.23;13.77;;;;;;;4.55;87.48;100995.34;5045763;28;20044;-86
2022/01/04 07:46:54;;;;;;;17.73;13.60;;;;;;;4.76;88.13;101022.16;5044559;28;20053;-86
2022/01/04 07:49:21;;;;;;;16.25;13.20;;;;;;;3.88;87.49;100885.22;5045017;28;20486;-87
2022/01/04 07:51:48;;;;;;;19.00;13.55;;;;;;;4.04;88.01;100906.22;5045767;28;20561;-85
2022/01/04 07:54:14;;;;;;;17.07;15.00;;;;;;;4.76;88.29;101033.56;5045867;28;20334;-85
2022/01/04 07:56:41;;;;;;;18.13;14.25;;;;;;;3.70;87.97;100858.22;5046130;28;20740;-87
2022/01/04 07:59:08;;;;;;;17.15;13.55;;;;;;;4.04;87.73;100928.09;5044945;28;20124;-85
2022/01/04 08:01:35;;;;;;;15.48;13.80;;;;;;;4.84;88.21;101049.72;5045240;28;20299;-86
2022/01/04 08:04:04;;;;;;;18.98;14.35;;;;;;;4.22;87.96;100934.09;5047049;28;20061;-86
2022/01/04 08:06:34;;;;;;;17.08;13.80;;;;;;;3.60;87.89;100826.41;5044405;28;20056;-87
2022/01/04 08:09:01;;;;;;;15.57;13.02;;;;;;;4.18;87.85;100929.09;5048602;28;20078;-87
2022/01/04 08:11:30;;;;;;;16.23;13.23;;;;;;;4.06;87.75;100899.97;5064449;28;20135;-85
2022/01/04 08:13:59;;;;;;;17.30;13.70;;;;;;;4.21;87.64;100921.03;5065856;28;20478;-88
2022/01/04 08:16:26;;;;;;;15.68;12.52;;;;;;;3.54;87.75;100831.97;5064613;28;20122;-85
2022/01/04 08:18:52;;;;;;;18.10;13.70;;;;;;;3.83;87.75;100861.84;5067120;28;20044;-86
2022/01/04 08:21:34;;;;;;;18.08;13.95;;;;;;;5.02;88.17;101062.75;5071626;28;20059;-88
2022/01/04 08:24:01;;;;;;;17.38;14.60;;;;;;;3.13;87.62;100756.44;5080632;28;20053;-88
2022/01/04 08:26:28;;;;;;;17.33;14.73;;;;;;;4.63;87.56;101003.63;5079682;28;20045;-87
2022/01/04 08:28:56;;;;;;;18.45;15.45;;;;;;;4.88;87.65;101045.16;5077240;28;20138;-85
2022/01/04 08:31:23;;;;;;;20.52;15.50;;;;;;;3.27;88.09;100810.72;5085280;28;20048;-86
2022/01/04 08:33:52;;;;;;;21.58;15.68;;;;;;;3.54;88.82;100845.09;5085072;28;20092;-86
2022/01/04 08:36:19;;;;;;;17.90;16.00;;;;;;;4.65;88.64;101022.78;5085540;28;20300;-86
2022/01/04 08:38:46;;;;;;;20.13;16.45;;;;;;;4.95;88.55;101043.00;5084603;28;20052;-84
2022/01/04 08:41:13;;;;;;;23.27;16.42;;;;;;;3.28;88.21;100769.63;5084328;28;20101;-87
2022/01/04 08:43:39;;;;;;;20.23;15.27;;;;;;;3.83;88.40;100853.97;5085029;28;20076;-85
2022/01/04 08:46:06;;;;;;;22.25;17.05;;;;;;;3.16;88.18;100751.00;5083073;28;20097;-84
2022/01/04 08:48:33;;;;;;;26.27;17.20;;;;;;;4.03;88.45;100887.00;5083033;28;20059;-85
2022/01/04 08:50:59;;;;;;;26.02;17.73;;;;;;;5.07;88.48;101039.66;5083017;28;20087;-85
2022/01/04 08:53:28;;;;;;;19.08;16.77;;;;;;;3.82;88.69;100840.94;5084490;28;20048;-84
2022/01/04 08:56:00;;;;;;;21.42;16.80;;;;;;;3.95;88.91;100843.69;5083054;28;20040;-83
2022/01/04 08:58:31;;;;;;;31.33;16.98;;;;;;;3.95;88.39;100838.44;5077997;28;20132;-85
2022/01/04 09:00:58;;;;;;;25.65;17.88;;;;;;;4.60;88.22;100940.69;5068063;28;20488;-84
2022/01/04 09:03:25;;;;;;;24.70;17.55;;;;;;;4.73;88.39;100957.44;5067397;28;20099;-86
2022/01/04 09:05:52;;;;;;;25.60;18.55;;;;;;;4.49;88.76;100910.63;5067754;28;20143;-85
2022/01/04 09:08:18;;;;;;;24.80;18.50;;;;;;;5.10;88.72;100997.38;5068661;28;20157;-86
2022/01/04 09:10:45;;;;;;;27.10;16.58;;;;;;;5.13;88.77;101002.44;5064093;28;20132;-85
2022/01/04 09:13:18;;;;;;;28.27;16.92;;;;;;;5.27;88.34;101035.84;5047449;28;20057;-87
2022/01/04 09:18:42;;;;;;;34.03;17.80;;;;;;;5.29;88.54;101037.44;5048836;28;20110;-85
2022/01/04 09:18:46;;;;;;;29.70;18.17;;;;;;;4.53;88.70;100920.97;5049172;28;20052;-85
2022/01/04 09:21:27;;;;;;;29.77;19.48;;;;;;;5.19;89.06;101023.13;5051569;28;20044;-85
2022/01/04 09:23:56;;;;;;;27.92;18.73;;;;;;;5.23;89.13;101023.81;5072754;28;20147;-86
2022/01/04 09:26:24;;;;;;;29.70;18.67;;;;;;;5.12;89.59;101001.59;5065040;28;20058;-85
2022/01/04 09:28:51;;;;;;;27.00;18.30;;;;;;;4.86;89.62;100947.91;5048920;28;20102;-87
2022/01/04 09:31:22;;;;;;;29.50;18.45;;;;;;;5.15;89.36;101000.56;5051194;28;20148;-86
2022/01/04 09:33:49;;;;;;;39.03;19.58;;;;;;;5.07;89.30;100987.00;5068641;28;20419;-85
2022/01/04 09:36:27;;;;;;;25.58;19.15;;;;;;;4.99;89.14;100978.75;5067287;28;20136;-84
2022/01/04 09:38:54;;;;;;;30.92;19.95;;;;;;;5.37;89.43;101039.63;5067357;28;20091;-86
2022/01/04 09:41:21;;;;;;;25.27;18.73;;;;;;;5.47;89.56;101042.53;5067640;28;20052;-87
2022/01/04 09:43:49;;;;;;;29.30;19.92;;;;;;;5.21;89.40;100997.56;5068028;28;20105;-87
2022/01/04 09:46:19;;;;;;;31.40;20.48;;;;;;;4.73;89.42;100904.84;5067624;28;20487;-84
2022/01/04 09:48:47;;;;;;;29.90;20.13;;;;;;;5.32;89.56;101005.66;5067736;28;20048;-85
2022/01/04 09:51:14;;;;;;;28.95;19.65;;;;;;;4.93;89.22;100922.91;5068333;28;20084;-84
2022/01/04 09:53:41;;;;;;;28.88;20.02;;;;;;;5.53;89.56;101016.69;5067992;28;20144;-85
2022/01/04 09:56:08;;;;;;;29.33;20.42;;;;;;;5.33;89.22;100981.03;5067848;28;20458;-86
2022/01/04 09:58:35;;;;;;;28.17;19.63;;;;;;;4.50;89.25;100843.94;5069154;28;20130;-87
2022/01/04 10:01:02;;;;;;;39.63;20.45;;;;;;;5.40;89.14;100999.09;5068937;28;20563;-87
2022/01/04 10:03:31;;;;;;;33.60;21.73;;;;;;;4.38;89.31;100815.75;5068613;28;20071;-87
2022/01/04 10:06:14;;;;;;;31.05;20.38;;;;;;;4.21;89.07;100782.59;5067482;28;20221;-86
2022/01/04 10:08:55;;;;;;;39.10;22.25;;;;;;;4.62;89.58;100838.91;5065899;28;20304;-87
2022/01/04 10:11:33;;;;;;;37.40;22.60;;;;;;;4.31;89.35;100782.91;5064067;28;20076;-85
2022/01/04 10:14:01;;;;;;;36.58;23.27;;;;;;;5.24;89.30;100939.50;5064040;28;20080;-85
2022/01/04 10:16:28;;;;;;;32.42;21.67;;;;;;;5.62;89.39;101002.09;5047516;28;20040;-84
2022/01/04 10:18:55;;;;;;;31.42;21.85;;;;;;;5.74;89.19;101011.88;5049168;28;20053;-85
2022/01/04 10:21:21;;;;;;;32.38;22.15;;;;;;;5.42;89.57;100955.94;5047622;28;20276;-84
2022/01/04 10:24:00;;;;;;;35.95;21.88;;;;;;;5.48;89.04;100954.69;5051213;28;20126;-88
2022/01/04 10:26:29;;;;;;;36.50;22.90;;;;;;;5.57;88.96;100954.13;5049881;28;20117;-88
2022/01/04 10:28:59;;;;;;;32.85;22.77;;;;;;;4.94;88.96;100871.13;5047967;28;20049;-83
2022/01/04 10:31:26;;;;;;;28.90;20.90;;;;;;;4.81;88.80;100830.75;5047108;28;20823;-84
2022/01/04 10:33:56;;;;;;;35.85;22.48;;;;;;;4.63;88.45;100803.78;5048139;28;20088;-86
2022/01/04 10:36:25;;;;;;;36.40;22.77;;;;;;;4.33;88.79;100733.72;5046959;28;20508;-86
2022/01/04 10:38:52;;;;;;;31.27;22.45;;;;;;;4.22;88.57;100712.47;5047063;28;20138;-86
2022/01/04 10:41:26;;;;;;;32.13;21.40;;;;;;;5.92;88.68;100980.03;5047785;28;20480;-86
2022/01/04 10:43:58;;;;;;;39.33;23.80;;;;;;;4.44;88.61;100733.91;5048521;28;20049;-85
2022/01/04 10:46:41;;;;;;;34.15;24.17;;;;;;;5.90;88.76;100966.97;5048259;28;20057;-88
2022/01/04 10:49:17;;;;;;;37.67;24.05;;;;;;;4.78;88.90;100779.19;5046895;28;20053;-85
2022/01/04 10:51:48;;;;;;;46.63;23.00;;;;;;;4.77;89.03;100768.75;5047054;28;20319;-88
2022/01/04 10:54:19;;;;;;;38.67;23.10;;;;;;;5.92;88.77;100973.00;5046661;28;20496;-86
2022/01/04 10:56:46;;;;;;;44.17;25.60;;;;;;;5.23;89.09;100842.19;5046980;28;20435;-86
2022/01/04 10:59:13;;;;;;;46.50;24.63;;;;;;;5.88;89.28;100934.59;5048141;28;20492;-86
2022/01/04 11:01:50;;;;;;;34.50;23.25;;;;;;;4.63;89.33;100724.88;5046024;28;20069;-85
2022/01/04 11:04:20;;;;;;;42.30;25.13;;;;;;;4.28;89.18;100662.19;5045572;28;20055;-89
2022/01/04 11:06:49;;;;;;;38.90;24.73;;;;;;;5.32;89.21;100821.38;5062799;28;20088;-86
2022/01/04 11:09:16;;;;;;;36.42;25.10;;;;;;;5.52;88.98;100837.69;5052847;28;20127;-87
2022/01/04 11:11:43;;;;;;;40.92;24.10;;;;;;;5.74;88.58;100869.59;5067026;28;20045;-87
2022/01/04 11:14:13;;;;;;;35.15;23.33;;;;;;;5.83;89.11;100891.91;5068589;28;20053;-85
2022/01/04 11:16:41;;;;;;;38.65;24.15;;;;;;;4.47;89.03;100662.75;5068041;28;20500;-85
2022/01/04 11:19:08;;;;;;;37.13;22.63;;;;;;;4.74;89.37;100682.97;5077963;28;20197;-85
2022/01/04 11:21:37;;;;;;;36.80;24.00;;;;;;;4.70;89.03;100660.44;5086700;28;20056;-85
2022/01/04 11:24:07;;;;;;;40.00;24.67;;;;;;;4.90;88.71;100691.59;5085999;28;20113;-86
2022/01/04 11:26:37;;;;;;;35.92;22.50;;;;;;;5.24;88.47;100704.34;5087053;28;20087;-86
2022/01/04 11:29:04;;;;;;;39.58;25.50;;;;;;;5.97;88.21;100833.03;5085720;28;20640;-87